createdAt,value
2023-01-04T00:01:35.107Z,-2.40
2023-01-04T00:04:03.127Z,-2.50
2023-01-04T00:06:31.169Z,-2.70
2023-01-04T00:08:59.092Z,-2.80
2023-01-04T00:11:27.015Z,-2.90
2023-01-04T00:13:58.491Z,-3.00
2023-01-04T00:16:28.414Z,-3.00
2023-01-04T00:18:58.428Z,-2.90
2023-01-04T00:21:28.178Z,-2.90
2023-01-04T00:23:59.169Z,-2.80
2023-01-04T00:26:29.428Z,-2.80
2023-01-04T00:28:58.581Z,-2.70
2023-01-04T00:31:27.396Z,-2.90
2023-01-04T00:33:57.548Z,-2.80
2023-01-04T00:36:26.004Z,-3.00
2023-01-04T00:39:08.661Z,-3.00
2023-01-04T00:44:26.939Z,-2.90
2023-01-04T00:46:55.028Z,-2.90
2023-01-04T00:49:24.648Z,-2.90
2023-01-04T00:51:53.183Z,-3.00
2023-01-04T00:54:22.326Z,-3.00
2023-01-04T00:56:50.569Z,-3.10
2023-01-04T00:59:20.390Z,-3.10
2023-01-04T01:01:48.774Z,-3.00
2023-01-04T01:04:18.649Z,-3.00
2023-01-04T01:06:48.270Z,-3.30
2023-01-04T01:09:16.400Z,-3.60
2023-01-04T01:11:44.628Z,-3.80
2023-01-04T01:14:17.086Z,-3.90
2023-01-04T01:16:55.288Z,-3.80
2023-01-04T01:19:25.150Z,-3.60
2023-01-04T01:21:56.364Z,-3.40
2023-01-04T01:24:24.402Z,-3.30
2023-01-04T01:26:52.303Z,-3.30
2023-01-04T01:29:20.267Z,-3.30
2023-01-04T01:31:48.348Z,-3.20
2023-01-04T01:34:16.294Z,-3.20
2023-01-04T01:36:44.314Z,-3.20
2023-01-04T01:39:13.568Z,-3.30
2023-01-04T01:41:41.490Z,-3.50
2023-01-04T01:44:42.922Z,-3.50
2023-01-04T01:47:13.708Z,-3.60
2023-01-04T01:49:44.896Z,-3.60
2023-01-04T01:52:15.751Z,-3.60
2023-01-04T01:54:48.642Z,-3.60
2023-01-04T01:57:20.357Z,-3.40
2023-01-04T01:59:54.253Z,-3.30
2023-01-04T02:02:22.842Z,-3.20
2023-01-04T02:04:52.525Z,-3.30
2023-01-04T02:07:23.690Z,-3.30
2023-01-04T02:09:53.155Z,-3.20
2023-01-04T02:12:21.128Z,-3.30
2023-01-04T02:14:51.681Z,-3.50
2023-01-04T02:17:26.229Z,-3.80
2023-01-04T02:20:10.328Z,-3.80
2023-01-04T02:23:16.259Z,-3.70
2023-01-04T02:26:17.409Z,-3.50
2023-01-04T02:29:10.739Z,-3.40
2023-01-04T02:31:41.757Z,-3.50
2023-01-04T02:34:15.898Z,-3.70
2023-01-04T02:36:54.681Z,-3.80
2023-01-04T02:39:33.355Z,-3.80
2023-01-04T02:42:09.054Z,-3.90
2023-01-04T02:44:54.173Z,-3.80
2023-01-04T02:47:46.066Z,-3.70
2023-01-04T02:50:35.650Z,-3.60
2023-01-04T02:53:06.897Z,-3.60
2023-01-04T02:55:46.261Z,-3.60
2023-01-04T02:58:30.257Z,-3.60
2023-01-04T03:01:24.740Z,-3.60
2023-01-04T03:04:24.304Z,-3.60
2023-01-04T03:06:57.105Z,-3.80
2023-01-04T03:09:30.527Z,-4.10
2023-01-04T03:12:22.631Z,-4.00
2023-01-04T03:14:54.886Z,-4.00
2023-01-04T03:17:25.181Z,-3.90
2023-01-04T03:19:57.819Z,-3.80
2023-01-04T03:22:49.645Z,-3.70
2023-01-04T03:25:39.879Z,-3.70
2023-01-04T03:28:29.123Z,-3.80
2023-01-04T03:31:23.164Z,-3.90
2023-01-04T03:34:09.323Z,-3.90
2023-01-04T03:36:59.693Z,-3.80
2023-01-04T03:39:55.493Z,-4.00
2023-01-04T03:42:48.162Z,-3.90
2023-01-04T03:45:38.637Z,-3.90
2023-01-04T03:48:33.311Z,-3.90
2023-01-04T03:51:15.555Z,-3.90
2023-01-04T03:53:52.896Z,-3.80
2023-01-04T03:56:23.043Z,-3.80
2023-01-04T03:58:51.752Z,-3.80
2023-01-04T04:01:21.236Z,-3.80
2023-01-04T04:04:06.855Z,-3.80
2023-01-04T04:06:52.144Z,-3.90
2023-01-04T04:09:21.586Z,-4.30
2023-01-04T04:11:49.583Z,-4.30
2023-01-04T04:14:17.514Z,-4.20
2023-01-04T04:16:45.478Z,-4.20
2023-01-04T04:19:13.645Z,-4.40
2023-01-04T04:21:41.747Z,-4.50
2023-01-04T04:24:17.136Z,-4.50
2023-01-04T04:26:46.502Z,-4.30
2023-01-04T04:29:14.469Z,-4.20
2023-01-04T04:31:42.661Z,-4.30
2023-01-04T04:34:11.087Z,-4.30
2023-01-04T04:36:39.337Z,-4.30
2023-01-04T04:39:07.468Z,-4.30
2023-01-04T04:41:41.588Z,-4.20
2023-01-04T04:44:12.869Z,-4.00
2023-01-04T04:46:41.372Z,-3.90
2023-01-04T04:49:10.016Z,-3.90
2023-01-04T04:51:38.842Z,-4.00
2023-01-04T04:54:08.194Z,-4.10
2023-01-04T04:56:37.836Z,-4.30
2023-01-04T04:59:06.260Z,-4.50
2023-01-04T05:01:35.920Z,-4.70
2023-01-04T05:04:04.085Z,-4.80
2023-01-04T05:06:32.037Z,-4.80
2023-01-04T05:09:00.230Z,-4.70
2023-01-04T05:11:42.414Z,-4.60
2023-01-04T05:14:10.805Z,-4.50
2023-01-04T05:16:40.367Z,-4.40
2023-01-04T05:19:08.456Z,-4.50
2023-01-04T05:21:36.324Z,-4.50
2023-01-04T05:24:04.559Z,-4.50
2023-01-04T05:26:32.584Z,-4.50
2023-01-04T05:29:00.671Z,-4.50
2023-01-04T05:31:27.808Z,-4.40
2023-01-04T05:33:57.155Z,-4.40
2023-01-04T05:36:25.199Z,-4.40
2023-01-04T05:38:53.138Z,-4.30
2023-01-04T05:41:38.611Z,-4.60
2023-01-04T05:44:06.695Z,-4.70
2023-01-04T05:46:34.762Z,-4.80
2023-01-04T05:49:04.133Z,-4.80
2023-01-04T05:51:32.025Z,-4.70
2023-01-04T05:54:00.131Z,-4.50
2023-01-04T05:56:28.073Z,-4.20
2023-01-04T05:58:56.003Z,-4.20
2023-01-04T06:01:23.911Z,-4.50
2023-01-04T06:03:51.934Z,-4.70
2023-01-04T06:06:21.269Z,-4.80
2023-01-04T06:08:49.167Z,-4.70
2023-01-04T06:11:20.157Z,-4.70
2023-01-04T06:13:50.623Z,-4.80
2023-01-04T06:16:18.572Z,-4.70
2023-01-04T06:18:46.526Z,-4.80
2023-01-04T06:21:14.458Z,-4.60
2023-01-04T06:23:43.783Z,-4.50
2023-01-04T06:26:11.690Z,-4.30
2023-01-04T06:28:41.160Z,-4.30
2023-01-04T06:31:10.934Z,-4.30
2023-01-04T06:33:39.332Z,-4.30
2023-01-04T06:36:08.332Z,-4.30
2023-01-04T06:38:50.147Z,-4.30
2023-01-04T06:41:18.269Z,-4.20
2023-01-04T06:43:46.249Z,-4.20
2023-01-04T06:46:14.328Z,-4.20
2023-01-04T06:48:42.432Z,-4.20
2023-01-04T06:51:10.598Z,-4.30
2023-01-04T06:53:38.873Z,-4.10
2023-01-04T06:56:09.160Z,-4.20
2023-01-04T06:58:37.408Z,-4.20
2023-01-04T07:01:05.858Z,-4.30
2023-01-04T07:03:33.997Z,-4.30
2023-01-04T07:06:05.956Z,-4.50
2023-01-04T07:08:34.672Z,-4.60
2023-01-04T07:11:03.170Z,-4.50
2023-01-04T07:13:32.671Z,-4.50
2023-01-04T07:16:00.774Z,-4.40
2023-01-04T07:18:28.916Z,-4.40
2023-01-04T07:20:57.246Z,-4.40
2023-01-04T07:23:25.198Z,-4.40
2023-01-04T07:25:53.210Z,-4.40
2023-01-04T07:28:35.076Z,-4.40
2023-01-04T07:31:07.829Z,-4.50
2023-01-04T07:33:35.923Z,-4.50
2023-01-04T07:36:05.444Z,-4.40
2023-01-04T07:38:34.427Z,-4.60
2023-01-04T07:41:02.725Z,-4.40
2023-01-04T07:43:30.739Z,-4.50
2023-01-04T07:45:58.895Z,-4.30
2023-01-04T07:48:29.638Z,-4.10
2023-01-04T07:50:57.762Z,-4.00
2023-01-04T07:53:26.124Z,-3.90
2023-01-04T07:55:58.697Z,-3.80
2023-01-04T07:58:27.014Z,-3.70
2023-01-04T08:00:55.654Z,-3.60
2023-01-04T08:03:23.579Z,-3.50
2023-01-04T08:05:52.859Z,-3.30
2023-01-04T08:08:20.754Z,-3.10
2023-01-04T08:10:48.705Z,-3.00
2023-01-04T08:13:16.664Z,-2.90
2023-01-04T08:15:44.781Z,-2.70
2023-01-04T08:18:12.797Z,-2.60
2023-01-04T08:20:40.769Z,-2.20
2023-01-04T08:23:10.110Z,-2.20
2023-01-04T08:25:38.065Z,-2.20
2023-01-04T08:28:06.339Z,-1.90
2023-01-04T08:30:34.263Z,-1.60
2023-01-04T08:33:02.696Z,-1.10
2023-01-04T08:35:30.617Z,-1.10
2023-01-04T08:38:20.148Z,-0.80
2023-01-04T08:40:58.071Z,-0.50
2023-01-04T08:43:27.819Z,-0.40
2023-01-04T08:45:56.143Z,-0.60
2023-01-04T08:48:24.765Z,-0.60
2023-01-04T08:50:52.972Z,-0.70
2023-01-04T08:53:20.977Z,-0.70
2023-01-04T08:55:54.364Z,-0.70
2023-01-04T08:58:22.877Z,-0.70
2023-01-04T09:00:51.214Z,-0.60
2023-01-04T09:03:19.487Z,-0.70
2023-01-04T09:05:47.788Z,-0.50
2023-01-04T09:08:15.739Z,-0.20
2023-01-04T09:10:43.660Z,0.40
2023-01-04T09:13:13.126Z,0.40
2023-01-04T09:15:41.101Z,1.00
2023-01-04T09:18:31.719Z,1.50
2023-01-04T09:21:01.275Z,1.60
2023-01-04T09:23:30.428Z,2.00
2023-01-04T09:25:58.434Z,2.40
2023-01-04T09:28:27.793Z,2.50
2023-01-04T09:30:55.739Z,2.80
2023-01-04T09:33:41.290Z,3.00
2023-01-04T09:36:15.121Z,3.30
2023-01-04T09:38:43.280Z,3.30
2023-01-04T09:41:19.860Z,3.20
2023-01-04T09:43:51.608Z,3.10
2023-01-04T09:46:29.980Z,2.90
2023-01-04T09:49:06.597Z,2.60
2023-01-04T09:51:38.240Z,2.70
2023-01-04T09:54:13.401Z,3.10
2023-01-04T09:56:52.313Z,3.30
2023-01-04T09:59:28.281Z,3.60
2023-01-04T10:02:00.762Z,3.80
2023-01-04T10:04:40.892Z,4.00
2023-01-04T10:07:18.416Z,4.00
2023-01-04T10:09:46.480Z,4.00
2023-01-04T10:12:34.297Z,4.10
2023-01-04T10:15:23.597Z,4.30
2023-01-04T10:24:07.795Z,4.40
2023-01-04T10:26:41.880Z,4.50
2023-01-04T10:29:31.116Z,4.60
2023-01-04T10:32:04.974Z,4.70
2023-01-04T10:34:38.773Z,4.70
2023-01-04T10:37:14.200Z,4.80
2023-01-04T10:39:42.835Z,4.80
2023-01-04T10:42:18.012Z,4.80
2023-01-04T10:44:58.432Z,4.90
2023-01-04T10:47:37.309Z,5.00
2023-01-04T10:50:12.523Z,5.10
2023-01-04T10:52:46.565Z,5.20
2023-01-04T10:55:20.295Z,5.30
2023-01-04T10:57:56.574Z,5.30
2023-01-04T11:00:27.887Z,5.40
2023-01-04T11:03:08.478Z,5.50
2023-01-04T11:05:40.468Z,5.70
2023-01-04T11:08:15.462Z,5.70
2023-01-04T11:10:49.245Z,5.80
2023-01-04T11:13:17.263Z,5.80
2023-01-04T11:15:47.725Z,5.80
2023-01-04T11:18:18.105Z,5.90
2023-01-04T11:20:46.316Z,6.00
2023-01-04T11:23:16.499Z,6.10
2023-01-04T11:25:55.493Z,6.20
2023-01-04T11:28:27.296Z,5.80
2023-01-04T11:31:02.986Z,5.50
2023-01-04T11:33:51.283Z,5.70
2023-01-04T11:36:34.348Z,5.50
2023-01-04T11:39:02.699Z,6.10
2023-01-04T11:41:31.215Z,6.40
2023-01-04T11:44:01.428Z,6.30
2023-01-04T11:46:31.008Z,6.30
2023-01-04T11:49:00.639Z,6.70
2023-01-04T11:51:39.485Z,6.70
2023-01-04T11:54:19.621Z,7.00
2023-01-04T11:57:08.808Z,6.80
2023-01-04T11:59:38.924Z,6.80
2023-01-04T12:02:59.393Z,6.90
2023-01-04T12:05:28.298Z,6.70
2023-01-04T12:07:57.911Z,6.70
2023-01-04T12:10:28.391Z,6.80
2023-01-04T12:12:57.570Z,6.70
2023-01-04T12:15:33.113Z,6.60
2023-01-04T12:18:05.797Z,6.40
2023-01-04T12:20:36.715Z,6.60
2023-01-04T12:23:04.697Z,6.30
2023-01-04T12:25:39.343Z,6.00
2023-01-04T12:28:07.974Z,6.10
2023-01-04T12:30:38.911Z,6.20
2023-01-04T12:33:39.371Z,6.10
2023-01-04T12:36:10.630Z,5.80
2023-01-04T12:39:01.631Z,6.00
2023-01-04T12:42:17.690Z,5.80
2023-01-04T12:45:03.736Z,5.70
2023-01-04T12:47:59.936Z,5.50
2023-01-04T12:50:30.289Z,5.60
2023-01-04T12:53:28.768Z,5.40
2023-01-04T12:55:54.166Z,5.30
2023-01-04T13:02:18.099Z,5.20
2023-01-04T13:04:46.506Z,5.30
2023-01-04T13:07:24.204Z,5.20
2023-01-04T13:09:59.802Z,5.30
2023-01-04T13:12:51.829Z,5.40
2023-01-04T13:15:25.033Z,5.50
2023-01-04T13:17:54.020Z,5.30
2023-01-04T13:20:25.691Z,5.20
2023-01-04T13:22:56.635Z,5.30
2023-01-04T13:25:27.063Z,5.40
2023-01-04T13:28:00.995Z,5.80
2023-01-04T13:30:34.421Z,6.10
2023-01-04T13:33:28.070Z,6.00
2023-01-04T13:36:04.641Z,5.90
2023-01-04T13:38:36.086Z,6.10
2023-01-04T13:41:19.389Z,5.80
2023-01-04T13:44:02.036Z,5.80
2023-01-04T13:46:30.055Z,5.70
2023-01-04T13:49:03.127Z,5.50
2023-01-04T13:51:37.693Z,5.50
2023-01-04T13:54:17.971Z,5.70
2023-01-04T13:56:55.041Z,5.30
2023-01-04T13:59:23.548Z,5.30
2023-01-04T14:01:53.115Z,5.20
2023-01-04T14:04:26.295Z,5.10
2023-01-04T14:06:57.635Z,5.00
2023-01-04T14:09:28.851Z,5.00
2023-01-04T14:12:06.817Z,4.70
2023-01-04T14:14:46.111Z,4.70
2023-01-04T14:17:24.303Z,4.70
2023-01-04T14:19:55.074Z,4.70
2023-01-04T14:22:41.490Z,4.70
2023-01-04T14:25:43.494Z,4.80
2023-01-04T14:28:41.641Z,5.00
2023-01-04T14:31:32.546Z,5.10
2023-01-04T14:34:06.269Z,4.90
2023-01-04T14:36:36.473Z,4.70
2023-01-04T14:39:26.615Z,4.90
2023-01-04T14:42:00.089Z,4.80
2023-01-04T14:44:33.530Z,4.70
2023-01-04T14:47:06.117Z,4.80
2023-01-04T14:49:34.432Z,4.80
2023-01-04T14:52:05.215Z,4.80
2023-01-04T14:54:35.068Z,5.10
2023-01-04T14:57:03.557Z,5.30
2023-01-04T14:59:32.961Z,5.30
2023-01-04T15:02:01.310Z,5.40
2023-01-04T15:04:29.290Z,5.40
2023-01-04T15:06:58.823Z,5.50
2023-01-04T15:09:27.771Z,5.40
2023-01-04T15:11:56.036Z,5.30
2023-01-04T15:14:24.590Z,5.20
2023-01-04T15:16:53.995Z,5.20
2023-01-04T15:19:21.977Z,5.30
2023-01-04T15:21:50.022Z,5.30
2023-01-04T15:24:18.036Z,5.40
2023-01-04T15:26:45.955Z,5.40
2023-01-04T15:29:14.038Z,5.30
2023-01-04T15:31:43.766Z,5.20
2023-01-04T15:34:15.469Z,5.00
2023-01-04T15:36:43.549Z,5.10
2023-01-04T15:39:14.075Z,5.10
2023-01-04T15:41:59.565Z,5.00
2023-01-04T15:44:28.034Z,4.80
2023-01-04T15:46:56.261Z,4.80
2023-01-04T15:49:25.905Z,4.60
2023-01-04T15:51:53.945Z,4.60
2023-01-04T15:54:22.112Z,4.40
2023-01-04T15:56:50.142Z,4.60
2023-01-04T15:59:18.168Z,4.60
2023-01-04T16:01:46.565Z,4.70
2023-01-04T16:04:15.016Z,4.80
2023-01-04T16:06:44.350Z,4.90
2023-01-04T16:09:12.369Z,5.00
2023-01-04T16:12:00.977Z,5.10
2023-01-04T16:14:28.957Z,4.80
2023-01-04T16:16:57.390Z,4.60
2023-01-04T16:19:25.477Z,4.90
2023-01-04T16:21:54.997Z,5.00
2023-01-04T16:25:08.297Z,5.00
2023-01-04T16:27:10.884Z,5.00
2023-01-04T16:29:38.921Z,5.10
2023-01-04T16:32:07.536Z,5.20
2023-01-04T16:34:36.658Z,5.00
2023-01-04T16:37:06.005Z,5.10
2023-01-04T16:40:05.294Z,5.00
2023-01-04T16:42:22.585Z,4.80
2023-01-04T16:44:51.119Z,4.80
2023-01-04T16:47:19.310Z,4.70
2023-01-04T16:49:52.057Z,4.60
2023-01-04T16:52:21.397Z,4.60
2023-01-04T16:54:50.308Z,4.50
2023-01-04T16:57:18.236Z,4.40
2023-01-04T16:59:46.136Z,4.30
2023-01-04T17:02:14.597Z,4.40
2023-01-04T17:04:42.692Z,4.60
2023-01-04T17:07:11.247Z,4.60
2023-01-04T17:09:41.245Z,4.60
2023-01-04T17:12:45.483Z,4.60
2023-01-04T17:17:45.344Z,4.40
2023-01-04T17:20:13.282Z,4.40
2023-01-04T17:22:41.385Z,4.40
2023-01-04T17:25:10.906Z,4.50
2023-01-04T17:27:38.830Z,4.50
2023-01-04T17:30:07.827Z,4.50
2023-01-04T17:32:35.827Z,4.60
2023-01-04T17:35:03.829Z,4.70
2023-01-04T17:37:31.738Z,4.70
2023-01-04T17:39:59.723Z,4.80
2023-01-04T17:42:28.985Z,4.90
2023-01-04T17:44:57.232Z,5.10
2023-01-04T17:47:25.615Z,5.00
2023-01-04T17:49:53.527Z,5.20
2023-01-04T17:52:30.464Z,5.40
2023-01-04T17:54:59.020Z,5.40
2023-01-04T17:57:29.635Z,5.40
2023-01-04T17:59:57.525Z,5.40
2023-01-04T18:02:25.480Z,5.30
2023-01-04T18:04:53.517Z,5.10
2023-01-04T18:07:24.905Z,5.20
2023-01-04T18:09:52.895Z,5.20
2023-01-04T18:12:22.713Z,5.20
2023-01-04T18:14:52.094Z,5.10
2023-01-04T18:17:20.174Z,5.00
2023-01-04T18:19:48.291Z,5.00
2023-01-04T18:22:16.466Z,5.00
2023-01-04T18:24:44.541Z,5.10
2023-01-04T18:27:23.615Z,5.00
2023-01-04T18:29:55.572Z,4.80
2023-01-04T18:32:26.101Z,5.00
2023-01-04T18:34:54.521Z,5.10
2023-01-04T18:37:22.705Z,5.20
2023-01-04T18:39:50.768Z,5.20
2023-01-04T18:42:18.965Z,5.00
2023-01-04T18:44:49.402Z,5.00
2023-01-04T18:47:20.693Z,4.90
2023-01-04T18:49:49.419Z,4.90
2023-01-04T18:52:18.314Z,5.10
2023-01-04T18:54:47.796Z,5.30
2023-01-04T18:57:15.905Z,5.40
2023-01-04T18:59:44.023Z,5.40
2023-01-04T19:02:17.691Z,5.40
2023-01-04T19:04:47.412Z,5.30
2023-01-04T19:07:15.534Z,5.20
2023-01-04T19:09:44.091Z,5.10
2023-01-04T19:12:12.436Z,5.00
2023-01-04T19:14:41.708Z,5.10
2023-01-04T19:17:09.953Z,5.10
2023-01-04T19:19:38.067Z,5.20
2023-01-04T19:22:07.668Z,5.10
2023-01-04T19:24:35.585Z,5.10
2023-01-04T19:27:05.033Z,5.00
2023-01-04T19:29:33.970Z,5.00
2023-01-04T19:32:02.140Z,5.10
2023-01-04T19:34:30.677Z,5.10
2023-01-04T19:36:58.635Z,5.10
2023-01-04T19:39:27.963Z,5.10
2023-01-04T19:41:56.077Z,5.10
2023-01-04T19:44:24.025Z,5.10
2023-01-04T19:46:52.032Z,5.00
2023-01-04T19:49:20.062Z,4.90
2023-01-04T19:51:51.499Z,4.90
2023-01-04T19:54:25.109Z,4.90
2023-01-04T19:56:55.764Z,4.90
2023-01-04T19:59:24.018Z,5.10
2023-01-04T20:01:52.128Z,5.00
2023-01-04T20:04:20.608Z,5.10
2023-01-04T20:06:48.868Z,5.30
2023-01-04T20:09:18.405Z,5.20
2023-01-04T20:11:46.529Z,5.20
2023-01-04T20:14:15.815Z,5.30
2023-01-04T20:16:43.937Z,5.20
2023-01-04T20:19:11.919Z,5.30
2023-01-04T20:21:40.447Z,5.30
2023-01-04T20:24:08.953Z,5.70
2023-01-04T20:26:37.683Z,5.50
2023-01-04T20:29:06.289Z,5.30
2023-01-04T20:31:37.411Z,5.40
2023-01-04T20:34:07.825Z,5.50
2023-01-04T20:36:35.795Z,5.80
2023-01-04T20:39:04.040Z,6.10
2023-01-04T20:41:32.430Z,6.20
2023-01-04T20:43:59.918Z,6.20
2023-01-04T20:46:32.538Z,6.30
2023-01-04T20:49:03.093Z,6.30
2023-01-04T20:51:31.933Z,6.30
2023-01-04T20:54:01.023Z,6.20
2023-01-04T20:56:31.429Z,6.10
2023-01-04T20:58:59.492Z,6.10
2023-01-04T21:01:27.740Z,5.90
2023-01-04T21:03:56.194Z,5.90
2023-01-04T21:06:25.909Z,6.00
2023-01-04T21:08:55.159Z,6.10
2023-01-04T21:11:23.533Z,6.00
2023-01-04T21:13:52.160Z,6.00
2023-01-04T21:16:20.144Z,6.10
2023-01-04T21:18:48.148Z,6.40
2023-01-04T21:21:17.561Z,6.40
2023-01-04T21:23:51.734Z,6.30
2023-01-04T21:26:22.766Z,6.20
2023-01-04T21:28:50.744Z,6.10
2023-01-04T21:31:21.193Z,6.10
2023-01-04T21:33:49.270Z,6.20
2023-01-04T21:36:19.717Z,6.20
2023-01-04T21:38:50.910Z,6.20
2023-01-04T21:41:18.848Z,6.30
2023-01-04T21:43:46.777Z,6.30
2023-01-04T21:46:16.420Z,6.30
2023-01-04T21:48:45.463Z,6.30
2023-01-04T21:51:14.404Z,6.30
2023-01-04T21:53:43.179Z,6.20
2023-01-04T21:56:14.498Z,6.40
2023-01-04T21:58:42.690Z,6.50
2023-01-04T22:01:11.445Z,6.30
2023-01-04T22:03:40.306Z,6.50
2023-01-04T22:06:09.011Z,6.20
2023-01-04T22:08:37.175Z,6.40
2023-01-04T22:11:05.301Z,6.40
2023-01-04T22:13:34.653Z,6.30
2023-01-04T22:16:06.839Z,6.20
2023-01-04T22:18:35.022Z,6.30
2023-01-04T22:21:04.413Z,6.30
2023-01-04T22:23:32.345Z,6.40
2023-01-04T22:26:01.196Z,6.60
2023-01-04T22:28:36.338Z,6.60
2023-01-04T22:31:07.651Z,6.50
2023-01-04T22:33:36.404Z,6.50
2023-01-04T22:36:06.133Z,6.50
2023-01-04T22:38:35.475Z,6.40
2023-01-04T22:41:07.873Z,6.20
2023-01-04T22:43:36.562Z,6.20
2023-01-04T22:46:11.344Z,6.00
2023-01-04T22:48:39.442Z,6.00
2023-01-04T22:51:08.537Z,6.00
2023-01-04T22:53:36.960Z,6.00
2023-01-04T22:56:18.998Z,6.20
2023-01-04T22:58:52.586Z,6.20
2023-01-04T23:01:23.416Z,6.30
2023-01-04T23:03:52.681Z,6.20
2023-01-04T23:06:21.598Z,6.30
2023-01-04T23:08:54.498Z,6.30
2023-01-04T23:11:22.740Z,6.30
2023-01-04T23:13:51.514Z,6.20
2023-01-04T23:16:20.202Z,6.30
2023-01-04T23:18:50.432Z,6.20
2023-01-04T23:21:18.363Z,6.30
2023-01-04T23:23:49.713Z,6.10
2023-01-04T23:26:19.857Z,6.30
2023-01-04T23:28:48.571Z,6.30
2023-01-04T23:31:19.486Z,6.30
2023-01-04T23:33:48.078Z,6.20
2023-01-04T23:36:19.661Z,6.20
2023-01-04T23:38:52.128Z,6.30
2023-01-04T23:41:20.282Z,6.30
2023-01-04T23:43:48.212Z,6.20
2023-01-04T23:46:18.116Z,6.10
2023-01-04T23:48:46.150Z,6.00
2023-01-04T23:51:14.269Z,6.00
2023-01-04T23:53:43.597Z,5.90
2023-01-04T23:56:15.848Z,6.10
2023-01-04T23:58:44.137Z,5.90
